Time;durP1;ratioP1;P1;durP2;ratioP2;P2;SDS_P1;SDS_P2;PMS_P1;PMS_P2;Temp;Humidity;BMP_temperature;BMP_pressure;BME280_temperature;BME280_humidity;BME280_pressure;Samples;Min_cycle;Max_cycle;Signal;HPM_P1;HPM_P2
2024/02/05 00:01:41;;;;;;;12.15;6.38;;;;;;;;;;5052918;28;20449;-61
2024/02/05 00:04:07;;;;;;;12.20;6.80;;;;;;;;;;5054514;28;20071;-61
2024/02/05 00:06:33;;;;;;;9.80;6.03;;;;;;;;;;5054605;28;20029;-61
2024/02/05 00:08:59;;;;;;;9.98;6.10;;;;;;;;;;5054466;28;20029;-61
2024/02/05 00:11:25;;;;;;;13.07;6.30;;;;;;;;;;5054429;28;20102;-61
2024/02/05 00:13:51;;;;;;;11.23;6.60;;;;;;;;;;5047940;28;20421;-61
2024/02/05 00:16:17;;;;;;;11.65;6.32;;;;;;;;;;5054158;28;20487;-61
2024/02/05 00:18:43;;;;;;;15.02;7.25;;;;;;;;;;5054201;28;20119;-61
2024/02/05 00:21:09;;;;;;;13.25;7.05;;;;;;;;;;5054291;28;20060;-61
2024/02/05 00:23:35;;;;;;;10.00;6.13;;;;;;;;;;5054333;28;20044;-61
2024/02/05 00:26:03;;;;;;;13.48;6.85;;;;;;;;;;5052651;28;20565;-61
2024/02/05 00:28:29;;;;;;;9.85;5.95;;;;;;;;;;5053945;28;20024;-61
2024/02/05 00:30:55;;;;;;;14.30;6.25;;;;;;;;;;5054227;28;20090;-61
2024/02/05 00:33:21;;;;;;;9.73;6.57;;;;;;;;;;5054171;28;20032;-61
2024/02/05 00:35:47;;;;;;;13.70;6.35;;;;;;;;;;5054060;28;20133;-60
2024/02/05 00:38:13;;;;;;;12.05;6.40;;;;;;;;;;5054120;28;20025;-60
2024/02/05 00:40:41;;;;;;;10.23;6.10;;;;;;;;;;5054249;28;20098;-61
2024/02/05 00:43:08;;;;;;;14.30;6.07;;;;;;;;;;5052800;28;20025;-61
2024/02/05 00:45:34;;;;;;;12.20;6.40;;;;;;;;;;5053436;28;20021;-61
2024/02/05 00:48:00;;;;;;;9.93;6.20;;;;;;;;;;5054119;28;20099;-61
2024/02/05 00:50:26;;;;;;;10.48;6.15;;;;;;;;;;5052491;28;20597;-61
2024/02/05 00:52:52;;;;;;;8.50;6.15;;;;;;;;;;5052281;28;20043;-61
2024/02/05 00:55:18;;;;;;;14.32;6.93;;;;;;;;;;5053803;28;20073;-61
2024/02/05 00:57:45;;;;;;;8.55;5.97;;;;;;;;;;5053614;28;20033;-61
2024/02/05 01:00:17;;;;;;;12.13;6.97;;;;;;;;;;5053181;28;20094;-61
2024/02/05 01:02:43;;;;;;;13.57;6.68;;;;;;;;;;5045593;28;20029;-61
2024/02/05 01:05:09;;;;;;;12.50;6.35;;;;;;;;;;5050416;28;20113;-61
2024/02/05 01:07:36;;;;;;;11.73;6.25;;;;;;;;;;5043554;28;20029;-61
2024/02/05 01:10:02;;;;;;;10.23;5.97;;;;;;;;;;5039291;28;20049;-60
2024/02/05 01:12:28;;;;;;;12.90;7.05;;;;;;;;;;5053448;28;20044;-61
2024/02/05 01:15:00;;;;;;;10.05;5.72;;;;;;;;;;5053172;28;20021;-62
2024/02/05 01:17:26;;;;;;;13.27;6.43;;;;;;;;;;5053137;28;20098;-61
2024/02/05 01:19:52;;;;;;;12.05;6.35;;;;;;;;;;5053273;28;20025;-62
2024/02/05 01:22:18;;;;;;;12.20;6.22;;;;;;;;;;5053060;28;20029;-61
2024/02/05 01:24:44;;;;;;;10.38;5.75;;;;;;;;;;5053033;28;20029;-61
2024/02/05 01:27:10;;;;;;;12.20;6.60;;;;;;;;;;5052973;28;20467;-61
2024/02/05 01:29:36;;;;;;;12.00;6.05;;;;;;;;;;5053008;28;20040;-61
2024/02/05 01:32:02;;;;;;;9.88;6.40;;;;;;;;;;5038942;28;20026;-61
2024/02/05 01:34:28;;;;;;;12.23;6.25;;;;;;;;;;5051287;28;20091;-61
2024/02/05 01:36:54;;;;;;;13.57;6.25;;;;;;;;;;5051751;28;20029;-61
2024/02/05 01:39:22;;;;;;;9.45;5.93;;;;;;;;;;5053117;28;20112;-61
2024/02/05 01:41:48;;;;;;;11.75;6.47;;;;;;;;;;5052846;28;20044;-61
2024/02/05 01:44:14;;;;;;;13.13;6.15;;;;;;;;;;5052625;28;20025;-61
2024/02/05 01:49:45;;;;;;;11.15;6.30;;;;;;;;;;5044456;28;20052;-61
2024/02/05 01:52:15;;;;;;;10.27;6.60;;;;;;;;;;5052072;28;20028;-61
2024/02/05 01:54:41;;;;;;;13.13;6.38;;;;;;;;;;5046943;28;20035;-61
2024/02/05 01:57:10;;;;;;;14.70;6.22;;;;;;;;;;5052318;28;20478;-61
2024/02/05 01:59:36;;;;;;;15.10;7.35;;;;;;;;;;5051067;28;20422;-61
2024/02/05 02:02:03;;;;;;;10.18;6.38;;;;;;;;;;5052242;28;20485;-61
2024/02/05 02:04:29;;;;;;;10.85;6.07;;;;;;;;;;5052063;28;20033;-60
2024/02/05 02:06:55;;;;;;;17.65;6.63;;;;;;;;;;5050242;28;20033;-61
2024/02/05 02:09:22;;;;;;;11.18;7.07;;;;;;;;;;5051789;28;20098;-61
2024/02/05 02:11:48;;;;;;;10.93;6.80;;;;;;;;;;5051280;28;20047;-61
2024/02/05 02:14:14;;;;;;;9.88;6.90;;;;;;;;;;5051728;28;20032;-62
2024/02/05 02:16:41;;;;;;;15.20;6.85;;;;;;;;;;5046868;28;20411;-62
2024/02/05 02:19:18;;;;;;;11.88;7.15;;;;;;;;;;5050521;28;20025;-62
2024/02/05 02:21:46;;;;;;;14.07;7.13;;;;;;;;;;5050527;28;20371;-62
2024/02/05 02:24:12;;;;;;;14.27;7.10;;;;;;;;;;5046515;28;20126;-62
2024/02/05 02:26:38;;;;;;;15.90;7.63;;;;;;;;;;5051457;28;20324;-62
2024/02/05 02:29:04;;;;;;;11.88;7.00;;;;;;;;;;5051281;28;20044;-62
2024/02/05 02:31:32;;;;;;;11.02;7.45;;;;;;;;;;5051106;28;20036;-62
2024/02/05 02:34:10;;;;;;;12.90;7.40;;;;;;;;;;5051159;28;20454;-62
2024/02/05 02:36:40;;;;;;;11.93;6.75;;;;;;;;;;5051124;28;20035;-62
2024/02/05 02:39:19;;;;;;;12.00;7.90;;;;;;;;;;5051135;28;20024;-62
2024/02/05 02:41:47;;;;;;;11.00;6.55;;;;;;;;;;5039369;28;20048;-62
2024/02/05 02:44:13;;;;;;;13.95;7.95;;;;;;;;;;5049586;28;20029;-62
2024/02/05 02:46:40;;;;;;;11.70;7.35;;;;;;;;;;5050822;28;20017;-62
2024/02/05 02:49:06;;;;;;;15.27;7.70;;;;;;;;;;5051071;28;20052;-62
2024/02/05 02:51:32;;;;;;;10.73;7.30;;;;;;;;;;5050919;28;20032;-62
2024/02/05 02:53:59;;;;;;;14.02;7.07;;;;;;;;;;5050946;28;20021;-62
2024/02/05 02:56:25;;;;;;;10.60;7.28;;;;;;;;;;5050538;28;20021;-62
2024/02/05 02:58:51;;;;;;;15.02;7.90;;;;;;;;;;5050798;28;20404;-62
2024/02/05 03:01:18;;;;;;;12.88;7.05;;;;;;;;;;5050502;28;20037;-62
2024/02/05 03:03:44;;;;;;;13.02;7.63;;;;;;;;;;5050958;28;20035;-62
2024/02/05 03:06:10;;;;;;;11.52;7.65;;;;;;;;;;5053138;28;20405;-62
2024/02/05 03:08:37;;;;;;;11.38;6.68;;;;;;;;;;5053451;28;20382;-61
2024/02/05 03:11:03;;;;;;;9.88;8.00;;;;;;;;;;5054893;28;20398;-62
2024/02/05 03:13:29;;;;;;;12.98;7.22;;;;;;;;;;5054852;28;20489;-62
2024/02/05 03:15:55;;;;;;;14.10;7.13;;;;;;;;;;5055504;28;20069;-62
2024/02/05 03:18:21;;;;;;;14.90;8.02;;;;;;;;;;5054170;28;20115;-62
2024/02/05 03:20:47;;;;;;;15.73;8.40;;;;;;;;;;5054142;28;20158;-62
2024/02/05 03:23:13;;;;;;;14.38;8.77;;;;;;;;;;5054152;28;20044;-61
2024/02/05 03:25:39;;;;;;;12.18;7.43;;;;;;;;;;5055172;28;20061;-62
2024/02/05 03:28:07;;;;;;;14.30;8.10;;;;;;;;;;5055354;28;20025;-62
2024/02/05 03:30:33;;;;;;;12.85;8.00;;;;;;;;;;5055086;28;20021;-62
2024/02/05 03:33:00;;;;;;;11.60;7.43;;;;;;;;;;5055290;28;20025;-60
2024/02/05 03:35:26;;;;;;;14.40;8.57;;;;;;;;;;5055080;28;20107;-61
2024/02/05 03:37:53;;;;;;;14.98;7.95;;;;;;;;;;5055182;28;20033;-60
2024/02/05 03:40:21;;;;;;;15.45;8.63;;;;;;;;;;5054989;28;20025;-61
2024/02/05 03:42:47;;;;;;;12.63;8.63;;;;;;;;;;5053819;28;20044;-61
2024/02/05 03:45:13;;;;;;;14.70;8.35;;;;;;;;;;5042775;28;20021;-61
2024/02/05 03:47:39;;;;;;;13.45;8.40;;;;;;;;;;5054828;28;20029;-60
2024/02/05 03:50:05;;;;;;;12.00;8.60;;;;;;;;;;5052877;28;20036;-60
2024/02/05 03:52:31;;;;;;;15.48;8.90;;;;;;;;;;5054657;28;20037;-61
2024/02/05 03:54:58;;;;;;;12.65;8.95;;;;;;;;;;5054704;28;20094;-61
2024/02/05 03:57:24;;;;;;;15.45;9.98;;;;;;;;;;5054823;28;20029;-61
2024/02/05 03:59:51;;;;;;;13.05;9.05;;;;;;;;;;5054222;28;20032;-61
2024/02/05 04:02:17;;;;;;;16.05;10.45;;;;;;;;;;5054519;28;20036;-61
2024/02/05 04:04:43;;;;;;;13.32;10.82;;;;;;;;;;5054719;28;20041;-61
2024/02/05 04:07:09;;;;;;;15.90;10.82;;;;;;;;;;5050340;28;20067;-61
2024/02/05 04:09:35;;;;;;;17.35;11.13;;;;;;;;;;5042718;28;20047;-59
2024/02/05 04:12:02;;;;;;;20.52;11.40;;;;;;;;;;5050660;28;20067;-60
2024/02/05 04:14:28;;;;;;;13.70;10.90;;;;;;;;;;5049896;28;20014;-60
2024/02/05 04:16:55;;;;;;;14.65;10.75;;;;;;;;;;5051315;28;20032;-60
2024/02/05 04:19:21;;;;;;;17.05;12.07;;;;;;;;;;5048734;28;20112;-60
2024/02/05 04:21:47;;;;;;;15.38;11.13;;;;;;;;;;5048034;28;20115;-60
2024/02/05 04:24:13;;;;;;;16.25;11.88;;;;;;;;;;5046554;28;20407;-60
2024/02/05 04:26:39;;;;;;;16.98;12.10;;;;;;;;;;5054517;28;20021;-60
2024/02/05 04:29:13;;;;;;;23.25;12.50;;;;;;;;;;5044143;28;20475;-61
2024/02/05 04:31:39;;;;;;;20.77;14.98;;;;;;;;;;5043475;28;20425;-60
2024/02/05 04:34:06;;;;;;;18.73;13.82;;;;;;;;;;5054459;28;20029;-60
2024/02/05 04:36:32;;;;;;;19.85;13.65;;;;;;;;;;5054045;28;20382;-60
2024/02/05 04:38:58;;;;;;;17.45;13.43;;;;;;;;;;5053926;28;20017;-60
2024/02/05 04:41:24;;;;;;;19.15;15.07;;;;;;;;;;5054125;28;20040;-60
2024/02/05 04:43:50;;;;;;;24.27;15.68;;;;;;;;;;5053714;28;20404;-61
2024/02/05 04:46:16;;;;;;;20.48;15.68;;;;;;;;;;5042641;28;20387;-60
2024/02/05 04:57:53;;;;;;;22.80;15.77;;;;;;;;;;5045649;28;20047;-61
2024/02/05 05:00:22;;;;;;;23.85;16.92;;;;;;;;;;5049256;28;20029;-61
2024/02/05 05:02:48;;;;;;;25.42;17.55;;;;;;;;;;5048393;28;20021;-61
2024/02/05 05:05:14;;;;;;;22.52;15.98;;;;;;;;;;5052403;28;20028;-61
2024/02/05 05:07:40;;;;;;;20.55;16.10;;;;;;;;;;5052024;28;20079;-61
2024/02/05 05:10:06;;;;;;;20.63;15.60;;;;;;;;;;5051788;28;20052;-61
2024/02/05 05:12:32;;;;;;;19.90;15.80;;;;;;;;;;5053605;28;20032;-61
2024/02/05 05:14:58;;;;;;;19.52;14.68;;;;;;;;;;5053164;28;20032;-61
2024/02/05 05:17:24;;;;;;;21.85;15.93;;;;;;;;;;5053110;28;20032;-61
2024/02/05 05:19:50;;;;;;;20.75;15.30;;;;;;;;;;5052967;28;20463;-61
2024/02/05 05:22:16;;;;;;;20.38;14.45;;;;;;;;;;5053329;28;20064;-61
2024/02/05 05:24:43;;;;;;;18.80;15.20;;;;;;;;;;5039046;28;20048;-61
2024/02/05 05:27:09;;;;;;;21.70;15.07;;;;;;;;;;5052709;28;20035;-61
2024/02/05 05:29:36;;;;;;;26.40;15.10;;;;;;;;;;5052386;28;20037;-61
2024/02/05 05:35:29;;;;;;;20.20;15.40;;;;;;;;;;5039155;28;20051;-61
2024/02/05 05:37:55;;;;;;;22.17;16.63;;;;;;;;;;5047989;28;20036;-61
2024/02/05 05:40:21;;;;;;;22.25;14.65;;;;;;;;;;5050502;28;20021;-62
2024/02/05 05:42:47;;;;;;;21.30;14.68;;;;;;;;;;5045078;28;20033;-61
2024/02/05 05:45:13;;;;;;;20.00;15.57;;;;;;;;;;5053104;28;20024;-61
2024/02/05 05:47:39;;;;;;;20.90;14.73;;;;;;;;;;5052676;28;20398;-61
2024/02/05 05:50:06;;;;;;;21.48;15.13;;;;;;;;;;5050968;28;20036;-61
2024/02/05 05:52:32;;;;;;;21.23;13.88;;;;;;;;;;5040723;28;20394;-61
2024/02/05 05:54:58;;;;;;;18.90;15.23;;;;;;;;;;5038544;28;20041;-61
2024/02/05 05:57:24;;;;;;;23.63;15.85;;;;;;;;;;5053053;28;20104;-62
2024/02/05 05:59:50;;;;;;;21.42;15.52;;;;;;;;;;5047786;28;20025;-62
2024/02/05 06:02:16;;;;;;;22.85;15.65;;;;;;;;;;5049459;28;20116;-61
2024/02/05 06:04:42;;;;;;;20.17;14.30;;;;;;;;;;5052457;28;20032;-61
2024/02/05 06:07:08;;;;;;;20.90;15.05;;;;;;;;;;5051041;28;20025;-61
2024/02/05 06:09:35;;;;;;;23.25;14.13;;;;;;;;;;5051143;28;20493;-62
2024/02/05 06:12:02;;;;;;;19.70;14.65;;;;;;;;;;5051744;28;20057;-62
2024/02/05 06:14:29;;;;;;;17.13;13.95;;;;;;;;;;5052179;28;20104;-62
2024/02/05 06:16:55;;;;;;;20.15;13.43;;;;;;;;;;5050894;28;20124;-62
2024/02/05 06:19:21;;;;;;;20.38;13.45;;;;;;;;;;5051795;28;20025;-61
2024/02/05 06:21:47;;;;;;;21.38;13.60;;;;;;;;;;5047992;28;20468;-62
2024/02/05 06:27:44;;;;;;;28.83;14.00;;;;;;;;;;5039467;28;20035;-62
2024/02/05 06:30:11;;;;;;;17.75;13.80;;;;;;;;;;5044501;28;20029;-62
2024/02/05 06:32:37;;;;;;;18.25;14.07;;;;;;;;;;5051257;28;20040;-62
2024/02/05 06:35:03;;;;;;;22.10;13.95;;;;;;;;;;5047540;28;20033;-61
2024/02/05 06:37:51;;;;;;;19.08;13.80;;;;;;;;;;5019281;28;20022;-62
2024/02/05 06:40:17;;;;;;;17.15;14.60;;;;;;;;;;5038763;28;20047;-61
2024/02/05 06:42:44;;;;;;;17.25;13.43;;;;;;;;;;5041536;28;20116;-61
2024/02/05 06:45:11;;;;;;;16.30;13.05;;;;;;;;;;5041177;28;20022;-61
2024/02/05 06:47:37;;;;;;;20.13;13.70;;;;;;;;;;5041567;28;20021;-62
2024/02/05 06:50:03;;;;;;;20.08;12.80;;;;;;;;;;5050041;28;20100;-61
2024/02/05 06:52:29;;;;;;;16.15;12.40;;;;;;;;;;5058503;28;20021;-61
2024/02/05 06:54:55;;;;;;;20.77;13.38;;;;;;;;;;5051776;28;20043;-62
2024/02/05 06:57:21;;;;;;;21.38;12.93;;;;;;;;;;5051481;28;20071;-62
2024/02/05 06:59:47;;;;;;;20.25;13.23;;;;;;;;;;5051608;28;20116;-61
2024/02/05 07:02:13;;;;;;;18.42;13.43;;;;;;;;;;5051403;28;20059;-62
2024/02/05 07:04:39;;;;;;;18.55;12.15;;;;;;;;;;5052074;28;20025;-61
2024/02/05 07:07:06;;;;;;;18.88;12.65;;;;;;;;;;5051804;28;20539;-62
2024/02/05 07:09:32;;;;;;;20.85;12.40;;;;;;;;;;5051878;28;20056;-62
2024/02/05 07:11:58;;;;;;;15.68;11.50;;;;;;;;;;5050150;28;20049;-62
2024/02/05 07:14:24;;;;;;;19.17;12.20;;;;;;;;;;5051793;28;20512;-61
2024/02/05 07:16:51;;;;;;;14.40;10.93;;;;;;;;;;5051892;28;20475;-61
2024/02/05 07:19:17;;;;;;;17.38;11.02;;;;;;;;;;5050961;28;20051;-61
2024/02/05 07:21:43;;;;;;;19.40;11.63;;;;;;;;;;5045163;28;20045;-61
2024/02/05 07:24:09;;;;;;;17.02;11.27;;;;;;;;;;5051570;28;20372;-61
2024/02/05 07:29:42;;;;;;;16.17;11.63;;;;;;;;;;5040126;28;20391;-60
2024/02/05 07:32:07;;;;;;;16.85;11.45;;;;;;;;;;5048768;28;20155;-60
2024/02/05 07:34:33;;;;;;;15.43;10.23;;;;;;;;;;5049673;28;20052;-60
2024/02/05 07:37:00;;;;;;;18.27;11.13;;;;;;;;;;5050712;28;20455;-61
2024/02/05 07:39:26;;;;;;;18.33;10.75;;;;;;;;;;5046353;28;20034;-61
2024/02/05 07:41:52;;;;;;;19.40;10.70;;;;;;;;;;5048659;28;20111;-62
2024/02/05 07:44:19;;;;;;;16.55;10.38;;;;;;;;;;5051341;28;20425;-61
2024/02/05 07:46:45;;;;;;;17.17;10.82;;;;;;;;;;5051472;28;20025;-61
2024/02/05 07:49:11;;;;;;;16.58;10.80;;;;;;;;;;5051557;28;20391;-61
2024/02/05 07:51:47;;;;;;;16.33;10.35;;;;;;;;;;5048515;28;20031;-61
2024/02/05 07:54:14;;;;;;;17.27;10.48;;;;;;;;;;5053830;28;20101;-60
2024/02/05 07:56:43;;;;;;;17.00;11.05;;;;;;;;;;5051003;28;20485;-60
2024/02/05 07:59:12;;;;;;;17.33;11.13;;;;;;;;;;5054909;28;20017;-60
2024/02/05 08:01:38;;;;;;;15.48;10.65;;;;;;;;;;5054852;28;20098;-60
2024/02/05 08:04:05;;;;;;;16.15;10.50;;;;;;;;;;5050246;28;20026;-60
2024/02/05 08:06:32;;;;;;;18.00;11.32;;;;;;;;;;5045892;28;20025;-62
2024/02/05 08:08:58;;;;;;;17.40;10.65;;;;;;;;;;5054337;28;20069;-61
2024/02/05 08:11:24;;;;;;;17.80;11.23;;;;;;;;;;5050818;28;20049;-60
2024/02/05 08:13:51;;;;;;;12.00;9.13;;;;;;;;;;5043308;28;20028;-60
2024/02/05 08:16:17;;;;;;;20.15;10.65;;;;;;;;;;5044781;28;20029;-60
2024/02/05 08:18:43;;;;;;;14.27;10.23;;;;;;;;;;5054641;28;20068;-61
2024/02/05 08:21:09;;;;;;;20.88;10.65;;;;;;;;;;5054604;28;20037;-61
2024/02/05 08:23:35;;;;;;;18.95;10.20;;;;;;;;;;5054214;28;20082;-61
2024/02/05 08:26:02;;;;;;;14.70;9.25;;;;;;;;;;5054541;28;20071;-61
2024/02/05 08:28:28;;;;;;;18.48;9.60;;;;;;;;;;5054423;28;20036;-61
2024/02/05 08:30:54;;;;;;;14.68;9.00;;;;;;;;;;5054530;28;20108;-61
2024/02/05 08:39:27;;;;;;;18.27;9.77;;;;;;;;;;5044862;28;20035;-62
2024/02/05 08:41:53;;;;;;;15.18;8.65;;;;;;;;;;5048850;28;20113;-61
2024/02/05 08:44:22;;;;;;;12.13;8.82;;;;;;;;;;5053784;28;20082;-61
2024/02/05 08:46:48;;;;;;;13.63;8.80;;;;;;;;;;5054208;28;20383;-62
2024/02/05 08:49:13;;;;;;;13.90;8.10;;;21.80;99.90;;;;;;5054163;28;20025;-64
2024/02/05 08:51:39;;;;;;;17.92;7.72;;;25.30;99.90;;;;;;5054010;28;20021;-63
2024/02/05 08:54:04;;;;;;;12.50;8.30;;;25.20;99.90;;;;;;5032686;28;20112;-62
2024/02/05 08:56:30;;;;;;;14.07;8.60;;;25.20;99.90;;;;;;5049592;28;20045;-59
2024/02/05 08:58:56;;;;;;;12.38;8.18;;;25.30;99.90;;;;;;5050896;28;20066;-59
2024/02/05 09:01:21;;;;;;;16.02;8.43;;;25.30;99.90;;;;;;5048451;28;20032;-60
2024/02/05 09:03:47;;;;;;;12.02;7.63;;;25.30;99.90;;;;;;5048384;28;20028;-62
2024/02/05 09:06:13;;;;;;;15.23;8.68;;;25.30;99.90;;;;;;5051638;28;20119;-64
2024/02/05 09:08:39;;;;;;;13.00;8.57;;;25.30;99.90;;;;;;5053900;28;20524;-67
2024/02/05 09:11:05;;;;;;;16.23;8.00;;;25.40;99.90;;;;;;5052028;28;20162;-55
2024/02/05 09:13:31;;;;;;;10.45;7.70;;;;;;;;;;5056482;28;20104;-62
2024/02/05 09:15:57;;;;;;;14.65;8.02;;;;;;;;;;5050228;28;20029;-63
2024/02/05 09:21:26;;;;;;;14.45;8.23;;;;;;;;;;5046542;28;20063;-65
2024/02/05 09:23:52;;;;;;;15.40;8.25;;;;;;;;;;5050831;28;20029;-66
2024/02/05 09:26:18;;;;;;;13.10;8.18;;;;;;;;;;5047202;28;20040;-63
2024/02/05 09:28:44;;;;;;;13.38;7.60;;;;;;;;;;5052616;28;20391;-58
2024/02/05 09:31:11;;;;;;;13.80;7.68;;;;;;;;;;5052898;28;20028;-58
2024/02/05 09:33:38;;;;;;;13.00;8.20;;;;;;;;;;5053071;28;21360;-58
2024/02/05 09:36:04;;;;;;;17.45;8.50;;;;;;;;;;5052602;28;20033;-63
2024/02/05 09:38:30;;;;;;;14.85;8.80;;;;;;;;;;5051907;28;20497;-60
2024/02/05 09:41:01;;;;;;;10.90;6.95;;;;;;;;;;5052754;28;20036;-59
2024/02/05 09:43:27;;;;;;;19.02;8.23;;;;;;;;;;5052513;28;20036;-66
2024/02/05 09:45:57;;;;;;;11.60;7.00;;;;;;;;;;5052100;28;20036;-64
2024/02/05 09:48:24;;;;;;;13.02;8.00;;;;;;;;;;5053129;28;20035;-59
2024/02/05 09:50:50;;;;;;;12.82;7.72;;;;;;;;;;5050048;28;20033;-61
2024/02/05 09:53:17;;;;;;;14.25;7.47;;;;;;;;;;5052585;28;20463;-60
2024/02/05 10:01:50;;;;;;;10.73;7.75;;;;;;;;;;5045610;28;20091;-60
2024/02/05 10:04:18;;;;;;;12.90;7.38;;;;;;;;;;5050971;28;20112;-62
2024/02/05 10:06:46;;;;;;;13.60;7.25;;;;;;;;;;5049409;28;20074;-59
2024/02/05 10:09:12;;;;;;;14.77;7.75;;;;;;;;;;5048410;28;20079;-61
2024/02/05 10:11:39;;;;;;;13.85;7.63;;;;;;;;;;5051918;28;20052;-57
2024/02/05 10:14:05;;;;;;;15.63;8.90;;;;;;;;;;5049065;28;20082;-59
2024/02/05 10:16:34;;;;;;;14.48;7.57;;;;;;;;;;5052310;28;20124;-60
2024/02/05 10:19:04;;;;;;;12.68;7.07;;;;;;;;;;5052151;28;20029;-59
2024/02/05 10:21:31;;;;;;;16.95;8.15;;;;;;;;;;5050383;28;20033;-58
2024/02/05 10:23:57;;;;;;;11.23;7.07;;;;;;;;;;5050122;28;20033;-62
2024/02/05 10:26:23;;;;;;;13.02;7.82;;;;;;;;;;5049320;28;20450;-60
2024/02/05 10:28:49;;;;;;;13.13;8.32;;;;;;;;;;5049902;28;20025;-61
2024/02/05 10:31:16;;;;;;;14.65;7.43;;;;;;;;;;5051823;28;20096;-61
2024/02/05 10:33:43;;;;;;;13.05;7.75;;;;;;;;;;5043415;28;20459;-61
2024/02/05 10:36:11;;;;;;;10.38;7.22;;;;;;;;;;5050062;28;20444;-62
2024/02/05 10:38:37;;;;;;;16.67;7.78;;;;;;;;;;5047228;28;20029;-62
2024/02/05 10:41:05;;;;;;;14.45;7.40;;;;;;;;;;5045769;28;20390;-61
2024/02/05 10:43:31;;;;;;;14.65;7.55;;;;;;;;;;5051459;28;20032;-61
2024/02/05 10:45:58;;;;;;;10.85;6.68;;;;;;;;;;5051242;28;20112;-61
2024/02/05 10:48:24;;;;;;;10.02;6.32;;;;;;;;;;5050458;28;20021;-61
2024/02/05 10:50:50;;;;;;;13.50;7.85;;;;;;;;;;5051158;28;20079;-63
2024/02/05 10:53:17;;;;;;;11.85;7.38;;;;;;;;;;5051572;28;20105;-62
2024/02/05 10:55:47;;;;;;;11.65;7.70;;;;;;;;;;5050290;28;20025;-62
2024/02/05 10:58:16;;;;;;;12.77;7.22;;;;;;;;;;5051172;28;20040;-61
2024/02/05 11:00:42;;;;;;;14.90;7.35;;;;;;;;;;5048037;28;20532;-62
2024/02/05 11:03:13;;;;;;;10.68;7.10;;;;;;;;;;5049984;28;20475;-62
2024/02/05 11:05:40;;;;;;;17.15;7.78;;;;;;;;;;5047452;28;20124;-62
2024/02/05 11:08:07;;;;;;;11.98;7.70;;;;;;;;;;5050768;28;20467;-60
2024/02/05 11:10:35;;;;;;;15.07;7.47;;;;;;;;;;5050142;28;20166;-60
2024/02/05 11:13:04;;;;;;;13.63;7.88;;;;;;;;;;5051405;28;20100;-59
2024/02/05 11:15:34;;;;;;;16.30;7.18;;;;;;;;;;5051064;28;20023;-58
2024/02/05 11:18:04;;;;;;;14.38;7.68;;;;;;;;;;5035493;28;20036;-66
2024/02/05 11:20:31;;;;;;;11.73;7.55;;;;;;;;;;5047151;28;20029;-65
2024/02/05 11:22:59;;;;;;;10.25;7.15;;;;;;;;;;5044681;28;20039;-64
2024/02/05 11:25:25;;;;;;;11.38;8.05;;;;;;;;;;5049623;28;20021;-60
2024/02/05 11:27:51;;;;;;;13.32;7.85;;;;;;;;;;5054137;28;20360;-60
2024/02/05 11:30:18;;;;;;;10.80;7.55;;;;;;;;;;5050071;28;20029;-60
2024/02/05 11:32:44;;;;;;;13.38;7.85;;;;;;;;;;5053284;28;20386;-68
2024/02/05 11:35:16;;;;;;;12.20;6.82;;;;;;;;;;5045414;28;20056;-69
2024/02/05 11:37:45;;;;;;;13.32;8.00;;;;;;;;;;5045459;28;20033;-68
2024/02/05 11:40:19;;;;;;;12.77;7.93;;;;;;;;;;5052041;28;20120;-68
2024/02/05 11:42:45;;;;;;;9.80;7.28;;;;;;;;;;5043570;28;20393;-68
2024/02/05 11:45:11;;;;;;;10.55;7.15;;;;;;;;;;5054927;28;20033;-68
2024/02/05 11:47:37;;;;;;;14.55;7.95;;;;;;;;;;5055078;28;20021;-68
2024/02/05 11:50:05;;;;;;;12.75;6.82;;;;;;;;;;5054667;28;20085;-68
2024/02/05 11:52:38;;;;;;;16.23;7.22;;;;;;;;;;5041721;28;20032;-67
2024/02/05 11:55:05;;;;;;;10.13;6.30;;;;;;;;;;5053621;28;20017;-68
2024/02/05 11:57:31;;;;;;;10.95;7.25;;;;;;;;;;5054937;28;20052;-67
2024/02/05 12:00:00;;;;;;;10.95;7.03;;;;;;;;;;5055069;28;20063;-67
2024/02/05 12:02:26;;;;;;;12.07;6.55;;;;;;;;;;5053178;28;20494;-67
2024/02/05 12:04:52;;;;;;;11.85;7.38;;;;;;;;;;5055002;28;20029;-67
2024/02/05 12:07:18;;;;;;;10.80;7.20;;;;;;;;;;5054712;28;20025;-67
2024/02/05 12:09:46;;;;;;;11.27;6.00;;;;;;;;;;5054379;28;20029;-65
2024/02/05 12:12:12;;;;;;;14.52;6.15;;;;;;;;;;5054419;28;20083;-66
2024/02/05 12:14:38;;;;;;;9.98;6.15;;;;;;;;;;5054643;28;20097;-67
2024/02/05 12:17:13;;;;;;;12.27;6.50;;;;;;;;;;5054478;28;20075;-67
2024/02/05 12:19:40;;;;;;;11.35;6.70;;;;;;;;;;5054648;28;20029;-66
2024/02/05 12:22:06;;;;;;;12.20;6.65;;;;;;;;;;5054209;28;20487;-67
2024/02/05 12:24:32;;;;;;;11.13;6.38;;;;;;;;;;5054562;28;20439;-61
2024/02/05 12:26:58;;;;;;;12.95;6.95;;;;;;;;;;5045928;28;20395;-68
2024/02/05 12:29:25;;;;;;;14.52;6.90;;;;;;;;;;5054119;28;20029;-67
2024/02/05 12:31:55;;;;;;;12.20;6.80;;;;;;;;;;5052929;28;20029;-67
2024/02/05 12:34:21;;;;;;;12.18;6.43;;;;;;;;;;5054390;28;20029;-67
2024/02/05 12:36:47;;;;;;;14.57;9.50;;;;;;;;;;5054253;28;20052;-66
2024/02/05 12:39:14;;;;;;;15.73;10.55;;;;;;;;;;5054119;28;20061;-66
2024/02/05 12:41:40;;;;;;;16.58;12.25;;;;;;;;;;5054410;28;20453;-67
2024/02/05 12:44:08;;;;;;;15.70;12.30;;;;;;;;;;5053302;28;20049;-68
2024/02/05 12:46:34;;;;;;;19.45;11.45;;;;;;;;;;5052274;28;20052;-68
2024/02/05 12:49:00;;;;;;;18.67;12.85;;;;;;;;;;5052018;28;20027;-67
2024/02/05 12:51:26;;;;;;;17.10;13.63;;;;;;;;;;5051484;28;20021;-67
2024/02/05 12:53:52;;;;;;;22.27;14.63;;;;;;;;;;5054060;28;20036;-68
2024/02/05 12:56:18;;;;;;;22.77;14.70;;;;;;;;;;5053889;28;20331;-68
2024/02/05 12:58:44;;;;;;;21.75;15.35;;;;;;;;;;5054274;28;20033;-67
2024/02/05 13:01:11;;;;;;;22.50;16.65;;;;;;;;;;5054181;28;20462;-68
2024/02/05 13:03:39;;;;;;;20.85;16.83;;;;;;;;;;5052550;28;20106;-68
2024/02/05 13:06:06;;;;;;;23.27;16.15;;;;;;;;;;5047199;28;20017;-68
2024/02/05 13:08:32;;;;;;;19.60;16.35;;;;;;;;;;5048269;28;20035;-69
2024/02/05 13:11:03;;;;;;;25.40;17.98;;;;;;;;;;5042644;28;20499;-68
2024/02/05 13:13:29;;;;;;;26.90;17.92;;;;;;;;;;5054113;28;20024;-68
2024/02/05 13:15:55;;;;;;;23.55;18.30;;;;;;;;;;5046247;28;20032;-68
2024/02/05 13:18:21;;;;;;;23.67;17.83;;;;;;;;;;5047680;28;20063;-68
2024/02/05 13:23:51;;;;;;;23.05;16.67;;;;;;;;;;5041008;28;20032;-68
2024/02/05 13:26:17;;;;;;;24.67;17.40;;;;;;;;;;5044756;28;20040;-67
2024/02/05 13:28:43;;;;;;;26.75;17.98;;;;;;;;;;5049342;28;20021;-68
2024/02/05 13:31:09;;;;;;;23.23;18.05;;;;;;;;;;5049953;28;20078;-68
2024/02/05 13:33:51;;;;;;;30.13;17.90;;;;;;;;;;5049427;28;20075;-68
2024/02/05 13:36:17;;;;;;;22.98;16.92;;;;;;;;;;5052235;28;20021;-68
2024/02/05 13:38:44;;;;;;;26.75;19.42;;;;;;;;;;5048244;28;20025;-67
2024/02/05 13:41:10;;;;;;;21.98;15.27;;;;;;;;;;5050547;28;20514;-68
2024/02/05 13:43:35;;;;;;;22.60;16.38;;;;;;;;;;5048382;28;20029;-68
2024/02/05 13:46:03;;;;;;;20.63;15.65;;;;;;;;;;5048780;28;20025;-68
2024/02/05 13:51:33;;;;;;;17.35;15.30;;;;;;;;;;5044403;28;20079;-67
2024/02/05 13:54:00;;;;;;;22.02;14.70;;;;;;;;;;5050923;28;20027;-67
2024/02/05 13:56:26;;;;;;;21.40;16.00;;;;;;;;;;5048967;28;20021;-67
2024/02/05 13:58:52;;;;;;;21.40;15.80;;;;;;;;;;5044872;28;20040;-68
2024/02/05 14:01:19;;;;;;;24.00;14.77;;;;;;;;;;5052790;28;20108;-67
2024/02/05 14:03:45;;;;;;;23.50;16.38;;;;;;;;;;5052764;28;20033;-67
2024/02/05 14:06:12;;;;;;;27.85;20.08;;;;;;;;;;5052747;28;20025;-66
2024/02/05 14:08:38;;;;;;;66.25;38.17;;;;;;;;;;5053103;28;20374;-67
2024/02/05 14:11:04;;;;;;;132.23;66.90;;;;;;;;;;5038379;28;20132;-61
2024/02/05 14:13:31;;;;;;;31.42;20.48;;;;;;;;;;5050661;28;20021;-67
2024/02/05 14:15:57;;;;;;;23.77;16.60;;;;;;;;;;5052747;28;20025;-67
2024/02/05 14:18:24;;;;;;;26.92;18.08;;;;;;;;;;5037718;28;20236;-67
2024/02/05 14:20:50;;;;;;;27.45;18.20;;;;;;;;;;5049123;28;20029;-67
2024/02/05 14:23:16;;;;;;;26.83;18.20;;;;;;;;;;5052604;28;20368;-67
2024/02/05 14:25:42;;;;;;;22.75;15.98;;;;;;;;;;5052740;28;20127;-67
2024/02/05 14:28:08;;;;;;;27.45;17.77;;;;;;;;;;5047997;28;20475;-66
2024/02/05 14:30:34;;;;;;;23.73;16.67;;;;;;;;;;5045240;28;20108;-68
2024/02/05 14:33:09;;;;;;;21.83;17.35;;;;;;;;;;5051091;28;20044;-67
2024/02/05 14:35:35;;;;;;;24.08;17.90;;;;;;;;;;5052631;28;20406;-67
2024/02/05 14:38:01;;;;;;;26.65;19.15;;;;;;;;;;5038458;28;20055;-68
2024/02/05 14:40:27;;;;;;;22.85;16.83;;;;;;;;;;5052271;28;20029;-67
2024/02/05 14:42:53;;;;;;;21.63;16.30;;;;;;;;;;5052441;28;20111;-67
2024/02/05 14:45:19;;;;;;;21.92;17.23;;;;;;;;;;5052317;28;20024;-67
2024/02/05 14:47:45;;;;;;;27.40;17.80;;;;;;;;;;5052108;28;20348;-67
2024/02/05 14:50:12;;;;;;;28.17;18.42;;;;;;;;;;5050822;28;20025;-68
2024/02/05 14:52:38;;;;;;;28.52;18.92;;;;;;;;;;5052182;28;20064;-68
2024/02/05 14:55:04;;;;;;;25.08;17.45;;;;;;;;;;5051916;28;20028;-68
2024/02/05 14:57:30;;;;;;;28.20;19.05;;;;;;;;;;5052272;28;20029;-68
2024/02/05 14:59:56;;;;;;;23.58;16.83;;;;;;;;;;5052157;28;20025;-68
2024/02/05 15:02:22;;;;;;;25.17;18.55;;;;;;;;;;5049823;28;20221;-68